createdAt,value
2018-08-03T00:00:16.802Z,21.40
2018-08-03T00:02:45.080Z,21.40
2018-08-03T00:05:13.332Z,21.30
2018-08-03T00:07:41.593Z,21.40
2018-08-03T00:10:09.890Z,21.40
2018-08-03T00:12:38.101Z,21.40
2018-08-03T00:15:07.357Z,21.40
2018-08-03T00:17:35.726Z,21.30
2018-08-03T00:20:05.125Z,21.30
2018-08-03T00:22:33.397Z,21.30
2018-08-03T00:25:01.678Z,21.30
2018-08-03T00:27:29.965Z,21.20
2018-08-03T00:29:58.220Z,21.20
2018-08-03T00:32:26.930Z,21.20
2018-08-03T00:34:55.185Z,21.20
2018-08-03T00:37:23.453Z,21.20
2018-08-03T00:39:51.729Z,21.20
2018-08-03T00:42:19.945Z,21.10
2018-08-03T00:44:48.252Z,21.00
2018-08-03T00:47:16.596Z,21.00
2018-08-03T00:49:45.187Z,21.00
2018-08-03T00:54:41.489Z,20.90
2018-08-03T00:57:09.955Z,20.90
2018-08-03T00:59:38.257Z,20.90
2018-08-03T01:02:06.648Z,20.90
2018-08-03T01:04:34.915Z,20.90
2018-08-03T01:07:03.454Z,21.00
2018-08-03T01:09:31.703Z,21.00
2018-08-03T01:11:59.921Z,21.00
2018-08-03T01:14:28.278Z,21.10
2018-08-03T01:16:56.502Z,21.10
2018-08-03T01:19:24.818Z,21.10
2018-08-03T01:21:53.094Z,21.10
2018-08-03T01:24:21.414Z,21.00
2018-08-03T01:26:49.652Z,21.00
2018-08-03T01:29:17.948Z,21.00
2018-08-03T01:31:46.241Z,20.90
2018-08-03T01:34:14.646Z,21.00
2018-08-03T01:36:42.988Z,20.90
2018-08-03T01:39:11.298Z,20.90
2018-08-03T01:41:39.637Z,21.00
2018-08-03T01:44:07.927Z,20.90
2018-08-03T01:46:36.208Z,20.90
2018-08-03T01:49:04.477Z,20.90
2018-08-03T01:51:32.713Z,20.90
2018-08-03T01:54:00.982Z,20.90
2018-08-03T01:56:29.201Z,20.80
2018-08-03T01:58:57.466Z,20.80
2018-08-03T02:01:25.738Z,20.70
2018-08-03T02:03:54.375Z,20.70
2018-08-03T02:06:22.743Z,20.70
2018-08-03T02:08:51.865Z,20.70
2018-08-03T02:11:20.185Z,20.70
2018-08-03T02:13:48.445Z,20.70
2018-08-03T02:16:16.750Z,20.70
2018-08-03T02:18:44.970Z,20.70
2018-08-03T02:21:13.227Z,20.70
2018-08-03T02:23:41.457Z,20.70
2018-08-03T02:26:09.779Z,20.70
2018-08-03T02:28:38.198Z,20.70
2018-08-03T02:31:06.563Z,20.70
2018-08-03T02:33:34.793Z,20.70
2018-08-03T02:36:03.130Z,20.60
2018-08-03T02:38:31.710Z,20.70
2018-08-03T02:41:00.002Z,20.70
2018-08-03T02:43:28.297Z,20.70
2018-08-03T02:45:56.532Z,20.70
2018-08-03T02:48:24.782Z,20.70
2018-08-03T02:50:53.043Z,20.70
2018-08-03T02:53:21.321Z,20.70
2018-08-03T02:55:49.886Z,20.60
2018-08-03T02:58:18.167Z,20.60
2018-08-03T03:00:46.479Z,20.60
2018-08-03T03:03:14.766Z,20.60
2018-08-03T03:05:43.028Z,20.40
2018-08-03T03:08:11.281Z,20.50
2018-08-03T03:10:39.534Z,20.60
2018-08-03T03:13:07.785Z,20.50
2018-08-03T03:15:36.217Z,20.50
2018-08-03T03:18:04.663Z,20.40
2018-08-03T03:20:33.219Z,20.40
2018-08-03T03:23:01.556Z,20.40
2018-08-03T03:25:29.841Z,20.40
2018-08-03T03:27:58.153Z,20.30
2018-08-03T03:30:26.406Z,20.30
2018-08-03T03:32:54.682Z,20.20
2018-08-03T03:35:23.011Z,20.20
2018-08-03T03:37:51.301Z,20.20
2018-08-03T03:40:19.545Z,20.20
2018-08-03T03:42:47.809Z,20.20
2018-08-03T03:45:16.136Z,20.20
2018-08-03T03:47:44.389Z,20.20
2018-08-03T03:50:12.705Z,20.20
2018-08-03T03:52:41.044Z,20.20
2018-08-03T03:55:09.284Z,20.20
2018-08-03T03:57:37.517Z,20.10
2018-08-03T04:00:06.983Z,20.10
2018-08-03T04:02:35.709Z,20.20
2018-08-03T04:05:04.241Z,20.20
2018-08-03T04:07:32.550Z,20.20
2018-08-03T04:10:00.822Z,20.20
2018-08-03T04:12:29.073Z,20.20
2018-08-03T04:14:57.338Z,20.20
2018-08-03T04:17:25.590Z,20.10
2018-08-03T04:19:54.250Z,20.10
2018-08-03T04:22:22.601Z,20.10
2018-08-03T04:24:51.081Z,20.10
2018-08-03T04:27:19.409Z,20.10
2018-08-03T04:29:47.613Z,20.10
2018-08-03T04:32:15.958Z,20.20
2018-08-03T04:34:44.189Z,20.20
2018-08-03T04:37:12.462Z,20.20
2018-08-03T04:39:40.760Z,20.20
2018-08-03T04:42:09.035Z,20.20
2018-08-03T04:44:37.323Z,20.20
2018-08-03T04:47:05.613Z,20.20
2018-08-03T04:49:33.925Z,20.30
2018-08-03T04:52:02.195Z,20.40
2018-08-03T04:54:30.566Z,20.40
2018-08-03T04:56:58.857Z,20.40
2018-08-03T04:59:27.134Z,20.40
2018-08-03T05:01:55.492Z,20.50
2018-08-03T05:04:23.843Z,20.50
2018-08-03T05:06:52.158Z,20.50
2018-08-03T05:09:20.538Z,20.50
2018-08-03T05:11:48.801Z,20.60
2018-08-03T05:14:17.115Z,20.70
2018-08-03T05:16:45.469Z,20.80
2018-08-03T05:19:13.752Z,21.00
2018-08-03T05:21:42.080Z,21.10
2018-08-03T05:24:10.345Z,21.30
2018-08-03T05:26:38.562Z,21.50
2018-08-03T05:29:06.938Z,21.80
2018-08-03T05:31:35.241Z,22.00
2018-08-03T05:34:03.657Z,22.20
2018-08-03T05:36:31.962Z,22.40
2018-08-03T05:39:00.219Z,22.40
2018-08-03T05:41:28.528Z,22.40
2018-08-03T05:43:56.774Z,22.50
2018-08-03T05:46:25.043Z,22.40
2018-08-03T05:48:53.302Z,22.50
2018-08-03T05:51:21.568Z,22.60
2018-08-03T05:53:49.947Z,22.70
2018-08-03T05:56:18.311Z,22.90
2018-08-03T05:58:46.707Z,22.80
2018-08-03T06:01:15.017Z,22.80
2018-08-03T06:03:43.269Z,22.80
2018-08-03T06:06:11.953Z,22.80
2018-08-03T06:08:40.237Z,23.00
2018-08-03T06:11:08.684Z,23.20
2018-08-03T06:13:37.019Z,23.20
2018-08-03T06:16:05.285Z,23.10
2018-08-03T06:18:33.594Z,23.20
2018-08-03T06:21:01.992Z,23.40
2018-08-03T06:23:30.597Z,23.50
2018-08-03T06:25:58.868Z,23.50
2018-08-03T06:28:27.154Z,23.50
2018-08-03T06:33:23.472Z,23.50
2018-08-03T06:35:51.822Z,23.50
2018-08-03T06:38:20.146Z,23.50
2018-08-03T06:40:48.477Z,23.50
2018-08-03T06:43:16.778Z,23.60
2018-08-03T06:45:45.046Z,23.70
2018-08-03T06:48:13.325Z,23.90
2018-08-03T06:50:41.606Z,24.10
2018-08-03T06:53:09.907Z,24.30
2018-08-03T06:55:38.297Z,24.80
2018-08-03T07:00:34.612Z,26.00
2018-08-03T07:03:02.905Z,26.50
2018-08-03T07:05:31.241Z,27.40
2018-08-03T07:07:59.586Z,27.90
2018-08-03T07:10:27.865Z,28.00
2018-08-03T07:12:56.171Z,28.80
2018-08-03T07:15:24.524Z,28.60
2018-08-03T07:17:52.793Z,29.90
2018-08-03T07:20:21.244Z,32.20
2018-08-03T07:22:49.451Z,30.10
2018-08-03T07:25:17.828Z,30.70
2018-08-03T07:27:46.172Z,30.00
2018-08-03T07:30:14.430Z,30.10
2018-08-03T07:32:42.679Z,30.40
2018-08-03T07:35:11.046Z,30.80
2018-08-03T07:37:39.346Z,31.10
2018-08-03T07:40:07.647Z,31.50
2018-08-03T07:42:35.917Z,31.60
2018-08-03T07:45:04.485Z,31.30
2018-08-03T07:47:32.759Z,30.60
2018-08-03T07:50:01.010Z,30.80
2018-08-03T07:52:29.278Z,29.90
2018-08-03T07:54:57.532Z,29.90
2018-08-03T07:57:25.786Z,29.80
2018-08-03T07:59:53.989Z,29.20
2018-08-03T08:02:22.285Z,29.20
2018-08-03T08:04:50.594Z,29.00
2018-08-03T08:07:19.298Z,28.50
2018-08-03T08:09:47.590Z,28.40
2018-08-03T08:12:15.781Z,28.30
2018-08-03T08:14:44.029Z,28.20
2018-08-03T08:17:12.310Z,28.50
2018-08-03T08:19:40.547Z,28.70
2018-08-03T08:22:08.757Z,28.50
2018-08-03T08:24:37.065Z,28.40
2018-08-03T08:27:05.409Z,28.40
2018-08-03T08:29:33.629Z,28.60
2018-08-03T08:32:01.892Z,28.70
2018-08-03T08:34:30.101Z,28.80
2018-08-03T08:36:58.375Z,28.80
2018-08-03T08:39:26.624Z,28.60
2018-08-03T08:41:54.905Z,28.90
2018-08-03T08:44:23.238Z,29.30
2018-08-03T08:46:51.515Z,29.50
2018-08-03T08:49:19.894Z,29.60
2018-08-03T08:51:48.121Z,29.80
2018-08-03T08:54:16.397Z,30.10
2018-08-03T08:56:44.674Z,30.40
2018-08-03T08:59:12.944Z,31.10
2018-08-03T09:01:41.167Z,31.50
2018-08-03T09:04:09.517Z,31.60
2018-08-03T09:06:37.761Z,31.80
2018-08-03T09:09:08.314Z,32.00
2018-08-03T09:11:36.685Z,31.90
2018-08-03T09:14:05.034Z,32.10
2018-08-03T09:16:33.353Z,32.60
2018-08-03T09:19:01.581Z,33.00
2018-08-03T09:21:29.881Z,33.30
2018-08-03T09:23:58.185Z,33.40
2018-08-03T09:26:26.992Z,33.20
2018-08-03T09:28:55.353Z,33.70
2018-08-03T09:31:23.659Z,34.40
2018-08-03T09:33:52.615Z,34.30
2018-08-03T09:36:20.981Z,34.70
2018-08-03T09:38:49.229Z,34.20
2018-08-03T09:41:17.535Z,33.50
2018-08-03T09:43:45.834Z,33.40
2018-08-03T09:46:14.122Z,33.20
2018-08-03T09:48:42.339Z,33.30
2018-08-03T09:51:10.572Z,33.10
2018-08-03T09:53:38.856Z,33.10
2018-08-03T09:56:07.101Z,33.30
2018-08-03T09:58:35.337Z,33.70
2018-08-03T10:01:08.889Z,34.10
2018-08-03T10:03:37.190Z,33.90
2018-08-03T10:08:33.654Z,34.00
2018-08-03T10:11:01.862Z,34.00
2018-08-03T10:13:30.085Z,34.10
2018-08-03T10:15:58.393Z,34.30
2018-08-03T10:18:26.647Z,34.20
2018-08-03T10:20:54.897Z,34.30
2018-08-03T10:23:23.154Z,34.60
2018-08-03T10:25:51.437Z,34.40
2018-08-03T10:28:19.907Z,34.30
2018-08-03T10:30:48.913Z,34.10
2018-08-03T10:33:17.169Z,34.20
2018-08-03T10:35:45.461Z,34.20
2018-08-03T10:38:14.159Z,33.80
2018-08-03T10:40:42.502Z,33.90
2018-08-03T10:43:10.899Z,34.10
2018-08-03T10:45:39.352Z,34.50
2018-08-03T10:48:07.936Z,34.90
2018-08-03T10:50:36.210Z,34.80
2018-08-03T10:53:04.825Z,34.30
2018-08-03T10:58:01.228Z,33.40
2018-08-03T11:00:31.033Z,33.80
2018-08-03T11:02:59.824Z,34.10
2018-08-03T11:05:28.662Z,34.10
2018-08-03T11:07:57.017Z,34.10
2018-08-03T11:10:25.326Z,34.40
2018-08-03T11:12:53.867Z,34.10
2018-08-03T11:15:22.157Z,34.10
2018-08-03T11:17:51.077Z,33.70
2018-08-03T11:20:19.474Z,33.50
2018-08-03T11:22:47.851Z,33.70
2018-08-03T11:25:16.378Z,33.70
2018-08-03T11:27:44.745Z,33.60
2018-08-03T11:30:13.089Z,33.80
2018-08-03T11:32:41.774Z,33.80
2018-08-03T11:35:10.597Z,34.10
2018-08-03T11:37:38.925Z,34.50
2018-08-03T11:42:35.921Z,34.50
2018-08-03T11:45:04.960Z,33.90
2018-08-03T11:47:33.251Z,33.70
2018-08-03T11:50:01.486Z,33.70
2018-08-03T11:52:29.775Z,33.80
2018-08-03T11:54:57.997Z,33.50
2018-08-03T11:57:26.305Z,33.50
2018-08-03T11:59:54.581Z,33.50
2018-08-03T12:02:22.870Z,33.70
2018-08-03T12:04:51.145Z,33.70
2018-08-03T12:07:19.521Z,33.70
2018-08-03T12:09:47.773Z,33.70
2018-08-03T12:12:16.065Z,33.80
2018-08-03T12:14:44.309Z,33.50
2018-08-03T12:17:12.588Z,33.50
2018-08-03T12:19:41.009Z,33.50
2018-08-03T12:22:09.333Z,33.70
2018-08-03T12:24:37.642Z,33.40
2018-08-03T12:27:06.047Z,33.40
2018-08-03T12:29:34.350Z,33.60
2018-08-03T12:32:02.750Z,33.70
2018-08-03T12:34:31.162Z,33.80
2018-08-03T12:36:59.514Z,33.50
2018-08-03T12:39:27.809Z,33.10
2018-08-03T12:41:56.039Z,33.30
2018-08-03T12:44:24.326Z,33.10
2018-08-03T12:46:52.602Z,33.10
2018-08-03T12:49:20.871Z,33.30
2018-08-03T12:51:49.198Z,33.30
2018-08-03T12:54:17.502Z,33.10
2018-08-03T12:56:45.885Z,32.90
2018-08-03T12:59:14.230Z,33.00
2018-08-03T13:01:42.500Z,33.10
2018-08-03T13:04:11.122Z,33.30
2018-08-03T13:06:39.349Z,33.20
2018-08-03T13:09:08.026Z,33.10
2018-08-03T13:11:36.329Z,32.90
2018-08-03T13:14:04.688Z,33.10
2018-08-03T13:16:32.980Z,33.40
2018-08-03T13:19:01.271Z,33.40
2018-08-03T13:21:36.817Z,33.50
2018-08-03T13:24:05.373Z,33.70
2018-08-03T13:26:33.653Z,34.00
2018-08-03T13:29:01.945Z,33.80
2018-08-03T13:31:30.801Z,33.60
2018-08-03T13:33:59.054Z,33.50
2018-08-03T13:36:29.686Z,33.40
2018-08-03T13:38:58.099Z,33.30
2018-08-03T13:43:54.604Z,33.40
2018-08-03T13:46:22.861Z,33.40
2018-08-03T13:48:51.175Z,33.00
2018-08-03T13:51:19.984Z,33.10
2018-08-03T13:53:48.845Z,33.10
2018-08-03T13:56:18.013Z,32.90
2018-08-03T13:58:47.073Z,33.20
2018-08-03T14:01:26.718Z,33.30
2018-08-03T14:03:55.145Z,33.30
2018-08-03T14:06:23.381Z,33.30
2018-08-03T14:08:51.766Z,33.00
2018-08-03T14:11:20.396Z,32.80
2018-08-03T14:13:48.716Z,33.10
2018-08-03T14:16:17.034Z,33.10
2018-08-03T14:18:46.587Z,32.70
2018-08-03T14:21:14.893Z,32.50
2018-08-03T14:23:43.599Z,32.40
2018-08-03T14:26:11.873Z,32.30
2018-08-03T14:28:40.193Z,32.40
2018-08-03T14:31:09.040Z,32.20
2018-08-03T14:36:05.401Z,32.00
2018-08-03T14:41:01.663Z,32.20
2018-08-03T14:43:29.937Z,32.20
2018-08-03T14:45:58.961Z,32.40
2018-08-03T14:48:27.216Z,32.30
2018-08-03T14:50:55.942Z,32.30
2018-08-03T14:53:24.173Z,32.30
2018-08-03T14:55:52.397Z,32.20
2018-08-03T14:58:20.705Z,32.10
2018-08-03T15:00:48.953Z,31.80
2018-08-03T15:03:17.229Z,31.70
2018-08-03T15:05:45.551Z,31.60
2018-08-03T15:08:13.882Z,31.60
2018-08-03T15:10:42.229Z,31.70
2018-08-03T15:13:10.513Z,31.60
2018-08-03T15:15:38.810Z,31.50
2018-08-03T15:18:07.553Z,31.60
2018-08-03T15:20:35.857Z,31.60
2018-08-03T15:23:04.146Z,31.40
2018-08-03T15:28:00.514Z,31.50
2018-08-03T15:30:28.836Z,31.50
2018-08-03T15:32:57.198Z,31.60
2018-08-03T15:35:25.573Z,31.50
2018-08-03T15:37:53.941Z,31.60
2018-08-03T15:40:22.194Z,31.40
2018-08-03T15:45:20.023Z,31.00
2018-08-03T15:47:48.345Z,30.90
2018-08-03T15:50:16.717Z,30.80
2018-08-03T15:52:45.039Z,30.60
2018-08-03T15:55:13.555Z,30.50
2018-08-03T15:57:41.865Z,30.50
2018-08-03T16:00:10.585Z,30.50
2018-08-03T16:02:38.881Z,30.50
2018-08-03T16:05:07.782Z,30.30
2018-08-03T16:07:36.058Z,30.30
2018-08-03T16:10:04.533Z,30.40
2018-08-03T16:12:32.749Z,30.50
2018-08-03T16:15:00.990Z,30.60
2018-08-03T16:17:29.265Z,30.40
2018-08-03T16:19:57.569Z,30.50
2018-08-03T16:22:25.789Z,30.50
2018-08-03T16:24:54.274Z,30.50
2018-08-03T16:27:22.569Z,30.60
2018-08-03T16:29:50.882Z,30.50
2018-08-03T16:32:19.278Z,30.60
2018-08-03T16:34:47.633Z,30.60
2018-08-03T16:37:15.907Z,30.60
2018-08-03T16:39:44.189Z,30.60
2018-08-03T16:42:12.434Z,30.70
2018-08-03T16:44:40.756Z,30.60
2018-08-03T16:47:09.055Z,30.50
2018-08-03T16:49:37.320Z,30.50
2018-08-03T16:52:05.657Z,30.50
2018-08-03T16:57:02.057Z,30.30
2018-08-03T16:59:30.252Z,30.30
2018-08-03T17:01:58.509Z,30.20
2018-08-03T17:04:26.719Z,30.30
2018-08-03T17:06:55.089Z,30.10
2018-08-03T17:09:23.855Z,30.00
2018-08-03T17:11:52.132Z,30.00
2018-08-03T17:14:20.373Z,30.10
2018-08-03T17:16:48.649Z,30.10
2018-08-03T17:19:16.877Z,29.80
2018-08-03T17:21:45.173Z,29.80
2018-08-03T17:24:13.442Z,29.80
2018-08-03T17:26:41.783Z,29.90
2018-08-03T17:29:10.247Z,29.70
2018-08-03T17:31:38.622Z,29.50
2018-08-03T17:34:07.106Z,29.50
2018-08-03T17:36:35.394Z,29.40
2018-08-03T17:39:05.851Z,29.40
2018-08-03T17:41:34.174Z,29.30
2018-08-03T17:44:02.514Z,29.10
2018-08-03T17:48:58.954Z,29.10
2018-08-03T17:51:27.304Z,29.20
2018-08-03T17:53:55.686Z,29.00
2018-08-03T17:56:23.992Z,28.90
2018-08-03T17:58:52.327Z,28.70
2018-08-03T18:01:20.588Z,28.80
2018-08-03T18:03:49.237Z,28.90
2018-08-03T18:06:17.578Z,28.70
2018-08-03T18:08:45.881Z,28.70
2018-08-03T18:11:14.186Z,28.70
2018-08-03T18:13:42.437Z,28.70
2018-08-03T18:16:10.945Z,28.40
2018-08-03T18:18:39.234Z,28.40
2018-08-03T18:21:07.569Z,28.40
2018-08-03T18:23:35.829Z,28.40
2018-08-03T18:26:04.086Z,28.30
2018-08-03T18:28:32.329Z,28.30
2018-08-03T18:31:00.938Z,28.30
2018-08-03T18:33:29.170Z,28.20
2018-08-03T18:35:57.437Z,28.10
2018-08-03T18:38:25.761Z,28.10
2018-08-03T18:40:53.982Z,28.00
2018-08-03T18:43:22.264Z,27.90
2018-08-03T18:45:50.502Z,27.80
2018-08-03T18:48:18.823Z,27.70
2018-08-03T18:50:47.139Z,27.60
2018-08-03T18:53:15.485Z,27.60
2018-08-03T18:55:43.946Z,27.50
2018-08-03T18:58:12.234Z,27.60
2018-08-03T19:00:40.469Z,27.60
2018-08-03T19:03:08.885Z,27.50
2018-08-03T19:08:05.776Z,27.50
2018-08-03T19:10:34.069Z,27.50
2018-08-03T19:13:02.591Z,27.40
2018-08-03T19:15:30.823Z,27.20
2018-08-03T19:17:59.137Z,27.20
2018-08-03T19:20:27.386Z,27.00
2018-08-03T19:22:55.699Z,27.00
2018-08-03T19:25:24.093Z,26.90
2018-08-03T19:27:52.353Z,26.90
2018-08-03T19:30:20.760Z,26.90
2018-08-03T19:32:49.094Z,26.80
2018-08-03T19:35:17.433Z,26.70
2018-08-03T19:37:45.829Z,26.60
2018-08-03T19:40:14.110Z,26.40
2018-08-03T19:42:42.371Z,26.40
2018-08-03T19:45:10.752Z,26.30
2018-08-03T19:47:38.973Z,26.20
2018-08-03T19:50:08.398Z,26.10
2018-08-03T19:52:36.759Z,26.10
2018-08-03T19:55:04.987Z,26.00
2018-08-03T19:57:33.346Z,25.90
2018-08-03T20:00:01.585Z,25.90
2018-08-03T20:02:29.865Z,25.90
2018-08-03T20:04:58.112Z,25.80
2018-08-03T20:07:26.402Z,25.80
2018-08-03T20:09:54.867Z,25.70
2018-08-03T20:12:23.168Z,25.70
2018-08-03T20:14:51.426Z,25.50
2018-08-03T20:17:19.817Z,25.60
2018-08-03T20:19:48.050Z,25.60
2018-08-03T20:22:18.067Z,25.50
2018-08-03T20:24:46.550Z,25.40
2018-08-03T20:27:15.409Z,25.40
2018-08-03T20:29:43.998Z,25.30
2018-08-03T20:32:12.413Z,25.20
2018-08-03T20:34:40.677Z,25.20
2018-08-03T20:37:09.005Z,25.30
2018-08-03T20:39:37.829Z,25.20
2018-08-03T20:42:06.325Z,25.20
2018-08-03T20:44:34.581Z,25.10
2018-08-03T20:47:02.877Z,25.10
2018-08-03T20:49:31.430Z,25.10
2018-08-03T20:51:59.741Z,25.20
2018-08-03T20:54:28.013Z,25.10
2018-08-03T20:56:56.330Z,25.10
2018-08-03T20:59:24.594Z,25.10
2018-08-03T21:01:52.943Z,25.10
2018-08-03T21:04:21.406Z,25.10
2018-08-03T21:06:49.785Z,25.00
2018-08-03T21:09:18.129Z,25.00
2018-08-03T21:11:46.473Z,24.80
2018-08-03T21:14:15.094Z,24.90
2018-08-03T21:16:43.439Z,25.00
2018-08-03T21:19:11.745Z,24.90
2018-08-03T21:21:40.815Z,24.90
2018-08-03T21:24:09.169Z,24.90
2018-08-03T21:26:37.541Z,24.90
2018-08-03T21:29:05.848Z,24.80
2018-08-03T21:31:34.089Z,24.70
2018-08-03T21:34:02.408Z,24.70
2018-08-03T21:36:30.636Z,24.60
2018-08-03T21:38:58.884Z,24.60
2018-08-03T21:41:27.201Z,24.50
2018-08-03T21:43:55.538Z,24.40
2018-08-03T21:46:23.736Z,24.30
2018-08-03T21:48:51.996Z,24.30
2018-08-03T21:51:20.337Z,24.20
2018-08-03T21:56:16.605Z,24.10
2018-08-03T21:58:44.905Z,24.20
2018-08-03T22:01:13.944Z,24.20
2018-08-03T22:03:42.661Z,24.30
2018-08-03T22:06:10.894Z,24.30
2018-08-03T22:08:39.465Z,24.20
2018-08-03T22:11:07.686Z,24.30
2018-08-03T22:13:36.085Z,24.30
2018-08-03T22:16:04.655Z,24.30
2018-08-03T22:18:32.894Z,24.20
2018-08-03T22:21:01.326Z,24.10
2018-08-03T22:23:29.676Z,24.10
2018-08-03T22:25:58.148Z,23.90
2018-08-03T22:28:26.475Z,23.90
2018-08-03T22:30:54.685Z,23.80
2018-08-03T22:35:51.068Z,23.70
2018-08-03T22:38:19.363Z,23.80
2018-08-03T22:40:47.888Z,23.70
2018-08-03T22:43:16.183Z,23.80
2018-08-03T22:45:44.449Z,23.80
2018-08-03T22:48:12.772Z,23.70
2018-08-03T22:50:41.032Z,23.70
2018-08-03T22:53:09.263Z,23.70
2018-08-03T22:55:37.660Z,23.60
2018-08-03T22:58:06.014Z,23.50
2018-08-03T23:00:34.398Z,23.50
2018-08-03T23:03:02.694Z,23.50
2018-08-03T23:05:30.969Z,23.50
2018-08-03T23:07:59.879Z,23.50
2018-08-03T23:10:28.121Z,23.50
2018-08-03T23:12:56.496Z,23.60
2018-08-03T23:15:24.877Z,23.70
2018-08-03T23:17:53.145Z,23.60
2018-08-03T23:20:21.393Z,23.50
2018-08-03T23:22:49.660Z,23.40
2018-08-03T23:25:17.929Z,23.40
2018-08-03T23:27:46.175Z,23.50
2018-08-03T23:30:14.463Z,23.50
2018-08-03T23:32:42.757Z,23.40
2018-08-03T23:35:11.037Z,23.40
2018-08-03T23:37:39.242Z,23.40
2018-08-03T23:40:07.533Z,23.40
2018-08-03T23:42:36.144Z,23.30
2018-08-03T23:45:04.528Z,23.30
2018-08-03T23:47:32.889Z,23.30
2018-08-03T23:50:01.149Z,23.30
2018-08-03T23:52:29.437Z,23.30
2018-08-03T23:54:57.729Z,23.30
2018-08-03T23:57:26.277Z,23.30
2018-08-03T23:59:54.553Z,23.30
